Date,TemperatureHighF,TemperatureAvgF,TemperatureLowF,DewpointHighF,DewpointAvgF,DewpointLowF,HumidityHigh,HumidityAvg,HumidityLow,PressureMaxIn,PressureMinIn,WindSpeedMaxMPH,WindSpeedAvgMPH,GustSpeedMaxMPH,PrecipitationSumIn
2014-1-1,31.2,23.3,13.2,26.9,20.7,9.5,94,90,78,30.38,30.06,21,6,21,0.09
2014-1-2,43.6,31.2,12.5,31.6,23.4,9.5,90,74,61,30.31,29.59,35,13,35,0.01
2014-1-3,45.7,32.8,20.0,31.3,24.5,17.8,91,73,50,30.04,29.32,51,20,51,0.00
2014-1-4,20.2,8.9,-0.7,18.1,6.0,-4.4,96,88,84,30.65,30.02,23,7,23,0.00
2014-1-5,-0.4,-9.6,-16.7,-4.2,-14.4,-21.5,84,79,74,31.08,30.63,41,13,43,0.00
2014-1-6,33.0,17.3,-8.8,22.1,8.2,-14.7,92,69,49,30.81,30.01,25,8,25,0.01
2014-1-7,35.5,29.0,21.0,26.5,21.8,17.2,86,74,63,30.05,29.93,12,2,12,0.00
2014-1-8,39.7,31.2,16.9,28.9,23.1,13.4,88,73,58,30.02,29.66,28,10,28,0.00
2014-1-9,38.4,33.8,25.5,27.4,23.0,14.5,70,64,57,29.67,29.49,32,12,32,0.00
2014-1-10,37.9,31.8,24.4,26.2,21.8,14.4,76,66,57,29.81,29.55,37,15,37,0.00
2014-1-11,47.7,38.7,27.6,33.2,27.1,19.5,90,63,54,29.78,29.20,55,17,55,0.05
2014-1-12,35.9,31.1,24.1,25.8,21.7,17.7,93,69,53,29.81,29.24,46,18,46,0.00
2014-1-13,46.1,34.7,25.2,29.7,25.8,22.2,94,72,45,30.23,29.56,60,23,60,0.00
2014-1-14,35.8,28.4,22.7,30.5,24.9,20.0,94,87,72,30.50,30.10,31,13,32,0.01
2014-1-15,44.9,38.7,30.7,28.3,24.9,18.0,73,58,45,30.28,29.92,48,22,48,0.00
2014-1-16,36.0,30.2,23.8,22.5,18.7,15.3,78,62,51,30.47,30.19,25,6,25,0.00
2014-1-17,44.2,36.3,24.4,29.4,23.1,16.3,72,59,45,30.20,30.01,33,11,33,0.00
2014-1-18,47.8,37.5,24.6,30.2,24.6,19.1,80,60,44,30.25,29.81,31,9,31,0.00
2014-1-19,47.2,41.0,27.0,26.3,22.5,17.4,74,49,34,30.20,29.76,35,12,35,0.00
2014-1-20,38.7,30.0,21.9,21.1,17.8,12.6,76,61,42,30.46,30.13,33,8,33,0.00
2014-1-21,40.0,34.6,29.2,25.3,20.7,14.9,76,57,40,30.32,30.12,19,6,20,0.00
2014-1-22,29.2,24.4,18.9,23.0,19.4,15.9,90,81,73,30.59,30.24,21,3,21,0.00
2014-1-23,41.1,26.9,8.9,26.7,15.7,4.7,90,66,35,30.60,30.24,21,6,21,0.00
2014-1-24,49.2,40.9,35.5,33.6,28.3,24.5,77,61,51,30.26,30.09,40,13,40,0.00
2014-1-25,53.3,41.1,31.4,33.6,29.1,25.4,80,63,43,30.17,29.82,33,11,36,0.00
2014-1-26,35.9,19.3,1.8,30.4,13.7,-4.3,93,79,69,30.53,29.86,24,14,38,0.01
2014-1-27,12.7,4.5,-4.1,6.6,-1.1,-8.7,85,77,69,30.62,30.52,19,5,23,0.00
2014-1-28,35.7,19.1,-1.2,19.2,7.2,-5.9,82,61,42,30.57,29.87,24,10,30,0.00
2014-1-29,35.6,28.1,15.7,29.1,23.8,13.5,94,85,65,29.87,29.44,23,5,27,0.04
2014-1-30,15.9,2.7,-8.7,13.4,-0.5,-12.7,91,86,82,30.26,29.72,20,8,20,0.00
2014-1-31,16.6,5.4,-7.0,13.9,1.7,-11.5,92,85,80,30.22,30.00,27,11,27,0.00
2014-2-1,12.5,3.2,-4.1,7.0,-1.2,-8.7,87,81,65,30.39,30.19,23,8,23,0.02
2014-2-2,19.1,10.5,-5.0,12.3,5.7,-9.8,92,81,71,30.36,30.12,19,4,19,0.00
2014-2-3,11.1,3.3,-2.5,7.9,-0.6,-6.4,92,83,78,30.60,30.13,24,6,24,0.00
2014-2-4,-2.4,-10.3,-17.5,-6.4,-14.7,-22.0,92,80,77,31.04,30.60,16,7,16,0.00
2014-2-5,-12.0,-20.0,-28.2,-18.2,-25.3,-33.7,92,75,70,31.18,31.01,12,4,12,0.00
2014-2-6,-3.4,-17.7,-29.9,-12.0,-23.5,-35.7,79,74,64,31.01,30.27,14,5,14,0.00
2014-2-7,15.8,1.4,-14.0,4.1,-6.4,-19.3,84,70,52,30.30,29.98,18,6,18,0.00
2014-2-8,2.9,-2.4,-8.6,-1.2,-6.5,-12.9,92,82,78,30.60,30.11,17,6,17,0.00
2014-2-9,8.5,0.1,-9.5,1.6,-4.8,-13.8,92,79,71,30.58,30.25,16,5,16,0.00
2014-2-10,34.9,21.3,3.6,25.7,13.0,-2.2,93,71,51,30.31,29.84,33,6,33,0.02
2014-2-11,37.7,29.0,14.3,27.5,22.9,10.7,94,79,62,30.09,29.67,56,14,56,0.01
2014-2-12,45.2,34.2,12.9,30.6,23.6,8.6,84,66,54,30.06,29.37,49,18,49,0.00
2014-2-13,41.9,35.7,29.9,31.5,24.5,18.4,72,64,56,29.84,29.53,46,15,46,0.00
2014-2-14,39.8,33.4,27.0,29.1,21.3,14.2,76,61,39,29.95,29.56,36,13,36,0.00
2014-2-15,41.9,33.6,27.1,28.1,21.1,16.1,74,61,36,29.96,29.54,22,6,22,0.00
2014-2-16,45.7,36.9,27.3,32.2,25.5,15.7,80,63,51,29.84,29.35,38,15,38,0.00
2014-2-17,43.6,37.0,26.3,27.8,20.5,13.5,75,51,38,29.85,29.46,46,18,46,0.00
2014-2-18,39.9,34.1,26.9,25.7,19.8,15.1,75,56,40,29.85,29.47,40,16,40,0.00
2014-2-19,41.5,32.2,23.3,28.3,16.6,8.8,82,53,35,29.84,29.36,48,24,48,0.00
2014-2-20,32.1,26.3,17.4,24.3,16.5,8.1,88,67,45,30.03,29.74,37,17,37,0.00
2014-2-21,28.3,23.3,12.0,21.8,16.8,8.7,91,76,61,30.11,29.75,36,13,36,0.00
2014-2-22,15.8,10.0,5.2,8.9,5.2,1.4,88,81,67,30.39,30.11,18,6,18,0.00
2014-2-23,8.9,6.9,5.1,6.1,2.7,1.2,92,83,78,30.47,30.32,17,9,17,0.00
2014-2-24,9.3,1.6,-2.2,3.9,-2.5,-6.1,95,82,76,30.65,30.33,14,4,14,0.00
2014-2-25,9.8,1.0,-6.8,1.5,-4.8,-11.6,92,76,67,30.79,30.49,17,5,17,0.00
2014-2-26,34.4,14.7,-6.6,12.9,1.7,-11.8,92,60,25,30.51,29.92,18,6,19,0.05
2014-2-27,43.6,24.3,10.5,24.9,13.5,0.8,92,65,38,29.93,29.57,35,8,35,0.00
2014-2-28,11.4,-0.7,-9.2,8.3,-4.8,-13.7,92,82,79,30.59,29.86,24,12,25,0.00
2014-3-1,-9.0,-14.9,-18.3,-13.8,-20.3,-23.5,80,76,73,30.74,30.59,17,8,17,0.00
2014-3-2,-0.1,-7.8,-16.6,-4.5,-13.2,-22.1,87,77,74,30.70,30.21,16,6,16,0.00
2014-3-3,41.8,18.6,-0.1,31.7,12.8,-4.9,94,78,50,30.22,29.73,23,4,23,0.01
2014-3-4,43.5,38.6,34.4,31.7,27.9,24.5,82,65,49,29.89,29.71,26,9,26,0.01
2014-3-5,45.9,41.4,34.4,33.1,27.8,23.2,69,58,48,29.87,29.59,30,13,30,0.00
2014-3-6,47.2,33.3,14.3,36.6,26.8,11.9,94,78,58,30.02,29.49,21,7,27,0.05
2014-3-7,43.5,29.1,14.4,32.9,24.0,12.0,92,82,62,30.19,29.98,18,4,18,0.00
2014-3-8,52.0,41.2,25.1,32.0,26.5,21.2,85,58,36,30.16,29.70,34,12,35,0.00
2014-3-9,55.2,50.3,45.7,38.7,32.9,26.2,63,51,41,29.72,29.61,43,21,43,0.00
2014-3-10,46.2,35.4,30.9,35.5,32.0,29.6,95,88,64,29.98,29.71,22,1,22,0.40
2014-3-11,38.5,30.3,21.7,29.8,24.7,19.7,96,81,51,30.41,29.98,13,3,17,0.23
2014-3-12,45.7,35.2,24.8,31.6,23.2,18.9,80,63,44,30.32,30.03,16,6,19,0.00
2014-3-13,44.1,37.7,25.8,29.4,24.8,19.9,85,60,46,29.94,29.76,36,14,36,0.00
2014-3-14,50.2,37.7,24.5,34.2,26.7,19.1,87,66,39,29.93,29.70,30,9,30,0.02
2014-3-15,44.0,35.5,30.7,36.2,28.8,23.3,96,78,50,30.27,29.77,40,14,40,0.03
2014-3-16,55.9,45.4,36.3,34.0,26.1,20.3,67,47,34,30.16,29.58,34,15,34,0.00
2014-3-17,42.7,34.4,29.5,32.7,27.0,20.4,96,76,41,29.89,29.32,70,7,70,0.01
2014-3-18,35.5,29.0,23.3,29.5,24.5,19.7,96,84,63,30.12,29.86,24,9,24,0.10
2014-3-19,42.2,31.2,18.1,23.1,18.5,13.8,85,61,39,30.12,29.85,22,7,22,0.00
2014-3-20,38.5,32.2,22.1,25.6,21.0,12.5,92,65,38,30.14,29.71,44,19,44,0.00
2014-3-21,22.6,15.1,10.3,20.0,12.2,7.2,92,88,84,30.59,30.10,32,11,34,0.00
2014-3-22,21.8,13.7,7.7,13.7,9.0,4.9,88,81,64,30.66,30.33,17,4,17,0.00
2014-3-23,23.7,19.5,16.2,23.0,16.5,11.4,100,88,81,30.46,30.17,18,4,18,0.00
2014-3-24,18.7,14.1,6.0,15.0,10.0,2.7,91,84,74,30.62,30.43,16,7,16,0.01
2014-3-25,43.5,27.5,6.6,29.9,19.3,2.6,84,72,51,30.55,29.50,19,6,19,0.02
2014-3-26,41.4,32.4,27.0,33.0,27.8,24.5,94,83,60,29.63,29.48,16,3,16,0.00
2014-3-27,37.1,28.3,21.5,31.7,25.6,19.8,95,90,73,29.94,29.61,27,6,27,0.03
2014-3-28,46.9,32.0,18.2,33.0,23.7,16.3,100,74,47,30.08,29.76,28,5,28,0.02
2014-3-29,47.1,42.6,37.5,38.1,29.8,21.3,86,61,50,29.80,29.58,31,10,31,0.02
2014-3-30,43.1,32.0,25.3,31.1,25.1,19.9,94,77,55,30.00,29.69,24,7,24,0.00
2014-3-31,34.7,26.3,19.3,26.6,22.3,16.1,94,85,71,30.18,29.98,19,7,19,0.01
2014-4-1,39.7,28.5,17.8,30.3,23.7,15.2,91,83,66,30.00,29.84,18,4,18,0.00
2014-4-2,40.5,30.5,23.5,29.2,25.0,21.0,92,81,58,29.96,29.78,16,2,16,0.00
2014-4-3,45.3,33.7,21.6,29.8,25.0,19.6,93,72,46,30.08,29.94,20,4,20,0.00
2014-4-4,53.1,40.5,25.0,30.9,24.5,20.0,82,55,32,29.95,29.66,32,8,32,0.00
2014-4-5,50.3,39.8,29.5,30.4,23.8,20.2,82,55,32,29.85,29.71,27,10,33,0.00
2014-4-6,46.4,38.0,31.9,36.7,29.6,21.6,93,72,51,30.08,29.77,44,12,44,0.13
2014-4-7,57.7,42.8,28.5,33.9,30.7,24.0,94,66,37,30.17,29.98,28,9,28,0.04
2014-4-8,67.8,51.8,31.4,34.8,30.8,26.5,84,49,23,30.05,29.67,31,13,37,0.00
2014-4-9,57.6,47.0,35.7,37.2,31.3,27.9,74,56,39,29.92,29.55,37,12,37,0.00
2014-4-10,58.1,43.5,26.6,28.4,22.8,17.6,86,49,22,29.97,29.77,40,12,40,0.00
2014-4-11,60.6,45.4,30.0,32.6,26.2,20.7,72,49,28,29.89,29.61,34,12,34,0.00
2014-4-12,43.9,29.2,21.7,31.2,26.3,19.7,95,89,58,30.30,29.70,25,12,27,0.00
2014-4-13,34.4,24.4,14.9,23.0,17.7,12.4,100,77,45,30.45,30.30,31,7,31,0.01
2014-4-14,51.9,35.9,14.7,21.5,17.1,10.8,85,51,24,30.42,29.76,28,7,28,0.01
2014-4-15,51.4,42.3,34.0,33.7,26.8,17.1,88,56,33,29.78,29.55,41,14,41,0.00
2014-4-16,42.7,33.9,28.2,34.1,29.9,26.4,94,86,59,30.08,29.77,21,4,21,0.03
2014-4-17,52.0,40.9,25.6,37.5,31.9,23.6,95,73,49,30.05,29.64,24,6,24,0.03
2014-4-18,54.9,43.7,35.0,38.2,31.0,18.0,86,62,37,29.82,29.55,53,11,53,0.02
2014-4-19,61.4,46.0,30.4,25.1,19.1,11.5,58,37,19,29.96,29.73,26,9,29,0.00
2014-4-20,57.7,46.9,36.4,29.6,21.7,17.0,60,39,22,30.15,29.70,46,16,46,0.00
2014-4-21,64.5,48.1,27.7,27.7,23.6,18.6,72,42,20,30.22,29.78,19,4,19,0.00
2014-4-22,71.8,56.6,42.8,45.5,34.1,24.5,95,46,25,29.80,29.24,46,8,46,0.04
2014-4-23,51.2,41.4,36.0,40.5,27.8,18.9,95,62,31,29.75,29.31,43,22,43,0.22
2014-4-24,50.7,41.9,30.3,36.6,30.3,24.3,82,64,46,29.82,29.68,31,8,31,0.00
2014-4-25,56.7,45.1,30.0,37.7,31.0,26.9,92,60,40,29.76,29.52,29,4,29,0.00
2014-4-26,48.4,39.0,30.8,41.0,35.5,29.6,96,88,50,29.62,29.41,29,8,29,0.06
2014-4-27,49.0,38.1,30.4,33.4,28.7,24.3,97,73,39,29.72,29.58,29,10,34,0.17
2014-4-28,49.9,39.8,31.5,34.5,27.3,22.1,84,62,38,30.24,29.70,43,17,43,0.00
2014-4-29,51.9,41.8,31.8,31.9,27.7,22.6,83,59,33,30.50,30.23,37,13,37,0.00
2014-4-30,56.9,42.2,24.0,28.1,23.6,20.1,87,53,27,30.53,30.28,28,7,28,0.00
2014-5-1,68.0,50.5,30.4,40.6,30.4,21.1,70,49,29,30.30,29.84,28,8,28,0.00
2014-5-2,61.2,49.9,40.2,45.1,39.2,34.8,86,67,46,29.87,29.77,22,7,22,0.00
2014-5-3,40.6,35.4,32.0,36.8,33.4,30.1,94,92,86,30.00,29.85,22,9,22,0.02
2014-5-4,54.9,43.0,35.7,44.8,38.5,33.9,96,85,60,29.91,29.70,22,6,22,0.05
2014-5-5,57.8,45.4,36.6,46.5,40.4,34.5,98,83,52,29.81,29.66,37,4,37,0.36
2014-5-6,47.4,39.8,31.1,40.6,35.8,29.7,96,86,64,29.98,29.73,21,7,28,0.03
2014-5-7,39.6,33.5,27.6,29.9,26.7,22.6,95,76,59,30.06,29.96,13,4,13,0.02
2014-5-8,57.5,42.5,24.1,32.3,27.5,22.1,93,61,30,30.00,29.64,22,4,22,0.00
2014-5-9,58.7,44.8,31.7,42.3,34.2,26.3,90,69,39,29.71,29.50,39,8,39,0.04
2014-5-10,41.4,37.0,33.1,37.2,33.3,30.5,92,86,79,30.15,29.66,26,8,26,0.00
2014-5-11,42.0,35.4,31.7,34.7,31.2,28.7,94,85,60,30.39,30.13,27,6,27,0.01
2014-5-12,51.4,40.1,27.1,30.1,25.7,21.7,90,60,33,30.48,30.33,25,6,25,0.00
2014-5-13,57.9,43.4,26.0,34.4,27.7,20.3,85,56,34,30.41,30.25,29,7,29,0.00
2014-5-14,61.6,47.8,29.9,38.7,32.7,26.0,86,59,34,30.34,30.12,16,4,16,0.00
2014-5-15,67.3,53.3,37.7,47.5,40.0,32.1,91,63,39,30.13,29.90,33,10,33,0.23
2014-5-16,53.5,47.5,43.5,44.7,41.6,39.2,92,80,65,30.13,29.97,21,6,21,0.03
2014-5-17,63.4,51.8,42.8,48.0,43.1,38.9,91,74,45,30.00,29.66,13,2,13,0.03
2014-5-18,52.3,47.3,40.6,48.1,43.6,38.4,92,87,84,29.65,29.54,13,3,13,0.25
2014-5-19,59.2,47.8,38.6,47.2,40.6,37.0,95,77,48,29.86,29.61,33,8,33,0.09
2014-5-20,62.4,50.6,36.3,44.5,39.9,34.1,93,69,40,29.96,29.85,17,3,21,0.00
2014-5-21,70.5,56.4,36.7,47.2,41.2,33.8,91,60,34,29.99,29.78,12,2,12,0.00
2014-5-22,75.6,60.5,42.4,55.2,44.5,38.4,87,59,29,29.91,29.78,18,4,18,0.00
2014-5-23,75.7,61.5,43.6,57.8,48.4,41.4,93,65,37,29.89,29.64,20,4,20,0.00
2014-5-24,71.3,58.6,49.0,51.5,47.5,42.7,94,69,42,29.85,29.66,27,5,27,0.12
2014-5-25,70.5,59.0,44.5,53.9,49.2,43.2,99,73,45,29.95,29.69,15,2,15,0.01
2014-5-26,74.0,61.5,48.4,56.2,49.4,45.3,90,67,41,29.82,29.68,27,2,29,0.00
2014-5-27,69.2,59.6,47.9,52.2,45.5,36.2,89,61,40,29.99,29.76,28,3,28,0.25
2014-5-28,76.3,62.1,49.2,63.7,54.5,45.5,89,77,61,29.81,29.48,24,8,24,0.00
2014-5-29,63.9,55.0,40.9,53.3,39.9,30.5,88,59,29,30.05,29.62,27,10,27,0.00
2014-5-30,71.5,56.0,36.0,48.9,39.3,31.0,83,56,34,30.09,29.81,22,6,24,0.00
2014-5-31,64.1,56.3,47.4,52.9,46.5,41.3,87,70,54,29.84,29.72,29,6,29,0.00
2014-6-1,66.5,53.8,42.5,48.8,44.0,39.8,93,72,42,29.90,29.82,25,5,25,0.00
2014-6-2,70.8,56.7,39.1,48.8,43.1,36.6,93,64,33,29.92,29.70,30,3,30,0.00
2014-6-3,68.3,54.5,43.4,55.6,48.3,40.5,91,80,54,29.76,29.60,23,4,23,0.19
2014-6-4,63.9,54.5,41.1,50.0,44.8,39.2,95,72,48,29.83,29.71,33,9,33,0.00
2014-6-5,57.7,48.9,40.2,46.6,41.2,36.0,91,75,58,30.02,29.74,24,7,24,0.00
2014-6-6,52.7,45.4,37.4,43.8,38.6,33.1,92,77,64,30.14,30.00,17,5,17,0.03
2014-6-7,64.9,50.0,31.9,43.4,36.1,30.1,94,63,35,30.14,29.91,26,4,26,0.00
2014-6-8,68.4,53.8,33.3,40.5,35.3,29.0,85,54,28,30.06,29.83,27,2,27,0.00
2014-6-9,75.3,59.9,38.4,46.4,39.3,33.8,84,50,28,29.88,29.56,40,11,40,0.00
2014-6-10,69.8,56.7,43.3,51.2,43.1,20.8,88,62,39,29.79,29.62,22,3,22,0.11
2014-6-11,56.7,48.6,39.0,47.1,43.1,36.9,94,82,59,30.08,29.77,26,4,26,0.14
2014-6-12,66.8,53.0,33.7,50.9,43.5,31.9,94,72,48,30.10,29.50,30,8,30,0.00
2014-6-13,66.8,54.1,44.5,52.3,47.2,40.9,96,79,45,29.67,29.47,40,7,40,0.15
2014-6-14,53.6,47.3,43.7,44.6,42.2,40.1,93,83,63,29.75,29.62,39,14,39,0.11
2014-6-15,63.5,53.9,44.7,47.3,43.4,40.7,93,69,48,29.75,29.56,23,6,23,0.00
2014-6-16,62.4,53.0,46.5,49.7,45.8,41.7,95,78,48,29.65,29.53,27,2,27,0.23
2014-6-17,59.4,52.7,48.0,52.5,48.6,45.7,97,86,64,29.75,29.55,28,3,28,0.58
2014-6-18,59.2,49.0,41.4,46.0,42.2,38.5,95,79,48,29.82,29.71,32,7,32,0.71
2014-6-19,57.5,51.4,45.2,51.4,46.1,39.8,92,82,73,29.85,29.70,25,6,25,0.08
2014-6-20,74.2,58.0,38.7,55.6,45.8,37.0,96,68,34,29.92,29.68,47,9,47,0.05
2014-6-21,69.0,59.6,46.3,47.9,44.3,40.3,86,59,37,29.92,29.71,21,5,21,0.00
2014-6-22,69.8,56.9,39.8,51.1,44.2,36.8,90,65,38,29.98,29.89,19,3,19,0.00
2014-6-23,70.8,58.7,42.7,51.5,46.0,40.5,93,66,37,30.00,29.89,10,2,13,0.00
2014-6-24,74.8,60.2,42.9,55.7,48.1,39.1,94,67,40,29.97,29.75,32,5,32,0.18
2014-6-25,74.4,62.9,49.9,57.7,52.7,48.2,95,72,45,29.79,29.63,19,3,19,0.00
2014-6-26,70.7,59.2,48.8,59.4,53.4,45.9,94,82,64,29.65,29.50,23,3,23,0.00
2014-6-27,68.2,59.3,51.5,55.9,52.5,49.0,96,79,55,29.61,29.51,18,2,19,0.00
2014-6-28,67.0,58.4,47.8,49.7,44.8,39.8,92,63,42,29.70,29.56,39,13,39,0.00
2014-6-29,67.0,57.1,45.2,44.8,40.0,37.6,78,54,37,29.79,29.67,37,16,37,0.00
2014-6-30,63.2,55.9,47.0,51.1,47.4,37.7,87,74,59,30.07,29.79,41,15,41,0.09
2014-7-1,70.8,59.3,45.3,55.6,49.6,42.6,95,73,45,30.15,29.98,15,3,15,0.01
2014-7-2,80.2,64.1,44.6,56.8,47.7,41.6,91,59,32,30.04,29.76,21,6,21,0.00
2014-7-3,86.0,69.3,54.6,62.6,51.9,44.4,73,55,34,29.78,29.65,25,5,25,0.02
2014-7-4,87.1,69.2,50.8,58.5,52.5,46.3,86,59,30,29.83,29.67,41,4,41,0.06
2014-7-5,82.5,68.9,51.1,59.1,49.4,41.2,88,55,26,29.87,29.69,26,6,26,0.00
2014-7-6,85.3,68.9,49.2,55.2,49.1,42.4,78,53,29,29.94,29.71,26,5,26,0.00
2014-7-7,74.0,62.0,50.3,53.4,49.0,44.7,90,64,40,30.05,29.76,26,7,26,0.00
2014-7-8,80.5,64.3,43.8,51.2,46.7,40.6,89,57,31,30.06,29.78,14,4,14,0.00
2014-7-9,87.5,72.0,50.4,61.1,52.1,43.6,80,52,35,29.81,29.50,14,3,17,0.00
2014-7-10,85.7,74.8,61.3,53.7,49.7,43.3,60,43,27,29.65,29.48,24,5,24,0.00
2014-7-11,80.1,67.7,56.8,56.2,51.7,46.1,83,58,41,29.94,29.63,24,6,25,0.00
2014-7-12,84.3,69.1,50.9,56.4,49.0,37.1,91,54,21,30.01,29.91,16,3,16,0.00
2014-7-13,85.1,69.1,48.0,52.3,47.8,43.1,84,51,26,30.05,29.94,19,5,19,0.00
2014-7-14,78.7,65.7,51.1,51.0,46.8,40.4,81,53,35,30.11,29.94,23,8,23,0.00
2014-7-15,68.5,60.6,51.4,56.2,49.6,39.2,94,68,45,30.02,29.90,24,4,24,0.36
2014-7-16,80.5,65.7,48.7,56.6,51.3,46.0,95,64,32,29.95,29.71,13,2,14,0.00
2014-7-17,87.5,69.2,48.7,56.6,49.0,42.3,79,54,24,29.78,29.47,13,4,13,0.00
2014-7-18,78.8,65.1,53.3,53.9,50.0,46.1,77,60,35,29.76,29.50,27,4,27,0.00
2014-7-19,87.9,68.8,47.1,49.5,45.9,40.9,80,48,25,29.70,29.53,39,9,39,0.00
2014-7-20,87.3,73.8,58.7,50.8,48.0,44.9,64,42,26,29.63,29.48,26,11,31,0.00
2014-7-21,75.3,61.8,49.9,61.4,53.7,45.8,91,76,49,29.93,29.62,26,4,26,0.07
2014-7-22,79.8,64.3,52.9,61.1,56.0,50.5,94,77,46,30.09,29.92,25,4,25,0.25
2014-7-23,86.5,71.8,56.0,63.9,57.1,49.2,89,63,36,30.06,29.61,53,3,53,0.00
2014-7-24,79.3,65.8,51.5,58.6,47.3,31.6,85,54,24,29.76,29.57,45,9,45,0.01
2014-7-25,79.4,65.2,50.4,38.3,35.7,32.1,56,36,19,29.82,29.64,40,16,40,0.00
2014-7-26,74.8,60.6,45.4,47.7,42.7,37.5,88,55,31,30.13,29.80,27,6,27,0.00
2014-7-27,84.0,66.2,44.0,47.2,42.4,38.4,81,47,24,30.17,29.97,21,6,21,0.00
2014-7-28,88.0,72.7,57.9,50.3,46.3,41.2,59,41,25,30.03,29.91,22,8,22,0.00
2014-7-31,89.0,76.8,51.8,51.1,45.7,41.4,69,36,21,29.95,29.80,24,5,24,0.00
2014-8-1,87.9,71.2,49.8,51.6,45.6,40.6,77,45,20,29.95,29.84,20,4,20,0.00
2014-8-2,87.0,69.3,57.3,56.9,51.2,45.0,76,55,26,29.97,29.80,36,7,36,0.23
2014-8-3,82.5,68.3,52.4,58.0,53.2,48.3,87,61,35,29.98,29.80,27,5,27,0.00
2014-8-4,80.5,65.5,50.4,56.7,53.6,47.6,92,68,41,29.96,29.85,22,3,22,0.00
2014-8-5,74.6,63.1,56.0,58.2,55.4,52.8,94,77,51,29.96,29.82,17,2,17,0.09
2014-8-6,86.0,68.5,49.6,54.3,49.2,44.6,91,57,25,29.91,29.69,14,4,14,0.00
2014-8-7,85.9,70.7,53.5,53.2,46.6,43.8,72,46,24,29.80,29.65,20,4,20,0.00
2014-8-8,85.6,69.7,53.7,54.3,48.3,44.3,71,49,26,29.76,29.67,22,4,27,0.00
2014-8-9,77.0,65.4,54.6,54.9,50.3,45.0,88,61,35,30.06,29.71,20,4,20,0.04
2014-8-10,85.5,70.5,54.5,53.5,49.9,46.8,79,51,28,30.04,29.90,18,4,18,0.00
2014-8-11,87.5,71.1,51.0,52.4,47.2,42.9,82,47,23,30.04,29.86,14,4,14,0.00
2014-8-12,91.9,75.0,57.1,53.8,48.5,43.3,67,42,23,29.90,29.67,25,8,25,0.00
2014-8-13,87.7,73.6,60.5,56.5,51.3,48.0,68,47,27,29.78,29.64,19,3,19,0.00
2014-8-14,77.3,65.7,58.6,61.6,55.6,50.6,93,72,41,29.87,29.62,26,4,26,0.14
2014-8-15,81.8,63.0,52.1,61.5,55.7,50.0,96,80,46,29.92,29.75,37,4,37,0.19
2014-8-16,77.5,64.9,53.0,57.7,50.8,45.3,96,65,34,29.92,29.78,29,8,29,0.18
2014-8-17,75.5,62.2,46.7,54.2,49.8,43.0,88,66,44,29.92,29.82,26,5,26,0.00
2014-8-18,82.5,66.4,49.6,55.6,51.4,47.5,94,63,32,29.91,29.59,15,2,15,0.00
2014-8-19,86.5,70.0,49.7,53.4,46.8,41.2,84,49,22,29.63,29.42,22,5,22,0.00
2014-8-20,76.4,64.0,56.6,55.7,49.4,42.9,87,61,38,29.73,29.44,33,3,33,0.23
2014-8-21,60.7,55.6,50.1,54.7,52.0,48.2,95,88,73,30.01,29.73,17,3,17,0.02
2014-8-22,57.7,53.4,50.8,54.4,51.9,48.8,98,95,84,30.01,29.93,15,2,15,0.30
2014-8-23,53.5,48.8,44.3,52.7,47.9,43.3,100,97,96,30.02,29.86,0,0,0,2.40
2014-8-24,45.0,44.0,43.0,43.9,42.9,41.7,98,96,92,30.12,29.92,36,8,36,0.48
2014-8-25,62.2,50.9,44.1,48.2,45.0,42.6,96,81,56,30.17,29.94,17,4,17,0.00
2014-8-26,74.1,57.8,40.8,51.3,44.1,38.8,94,65,32,30.05,29.90,17,5,17,0.00
2014-8-27,79.2,63.3,45.7,53.4,47.2,42.5,90,60,32,29.95,29.81,19,4,19,0.00
2014-8-28,82.0,65.6,48.6,53.9,47.9,43.9,85,58,29,29.86,29.67,27,6,27,0.00
2014-8-29,57.5,52.8,48.1,52.0,48.4,44.2,89,85,80,29.89,29.78,24,4,27,0.00
2014-8-30,68.0,60.9,50.4,53.5,48.5,44.8,90,65,47,29.70,29.55,18,2,18,0.08
2014-8-31,64.8,54.9,44.9,48.3,44.0,39.0,91,68,43,29.80,29.62,19,5,25,0.00
2014-9-1,66.8,55.5,42.7,43.9,40.8,37.4,85,60,39,29.88,29.76,26,6,26,0.00
2014-9-2,71.7,56.7,39.7,47.7,41.9,35.9,88,61,35,29.83,29.56,11,2,11,0.00
2014-9-3,61.2,52.2,42.7,47.7,41.6,36.9,83,68,47,29.90,29.46,30,12,33,0.00
2014-9-4,60.4,49.7,39.8,42.8,38.9,34.7,88,69,40,30.14,29.89,31,8,33,0.00
2014-9-5,66.5,50.9,35.1,42.5,36.7,31.7,92,63,33,30.25,30.09,12,3,12,0.00
2014-9-6,73.3,64.0,44.1,44.8,40.6,36.0,73,44,28,30.05,29.88,13,4,15,0.00
2014-9-7,79.7,59.7,41.1,48.5,38.6,31.0,81,51,18,29.90,29.62,23,6,24,0.00
2014-9-8,74.5,57.5,40.8,48.7,39.1,30.5,88,54,26,29.79,29.60,26,5,29,0.00
2014-9-9,44.0,38.3,34.3,39.1,35.4,33.0,95,89,78,30.21,29.79,22,9,24,0.02
2014-9-10,36.9,33.5,31.4,34.6,31.8,29.9,96,93,87,30.47,30.17,18,5,19,0.26
2014-9-11,43.2,34.6,30.4,32.7,29.9,26.2,100,84,56,30.59,30.45,15,4,16,0.02
2014-9-12,61.9,42.5,23.8,37.0,29.3,21.3,92,65,28,30.47,30.03,20,3,20,0.00
2014-9-13,52.1,42.4,36.0,38.2,34.6,30.6,92,75,50,30.26,30.04,20,5,20,0.00
2014-9-14,59.1,46.2,33.5,43.1,36.1,30.9,92,70,42,30.16,30.01,17,3,18,0.00
2014-9-15,71.1,52.0,33.4,47.0,38.7,30.0,92,65,34,30.16,29.91,12,3,13,0.00
2014-9-16,75.6,57.7,40.7,53.3,42.8,34.1,82,61,28,29.93,29.73,14,4,15,0.00
2014-9-17,80.0,63.2,46.5,54.9,48.5,42.1,86,62,31,29.81,29.56,15,4,15,0.00
2014-9-18,78.7,62.7,50.8,55.0,48.6,41.8,78,61,36,29.59,29.51,34,7,37,0.00
2014-9-19,69.0,61.9,51.6,50.6,45.7,41.8,80,56,45,29.86,29.51,36,14,36,0.00
2014-9-20,67.6,56.5,46.1,49.0,43.5,39.2,86,63,44,30.15,29.86,16,5,17,0.00
2014-9-21,75.7,57.9,40.7,51.7,43.6,36.8,87,62,37,30.19,29.85,17,5,17,0.00
2014-9-22,76.0,58.4,45.2,57.5,47.6,39.5,87,69,39,29.87,29.71,12,4,13,0.00
2014-9-23,77.1,61.4,45.8,54.9,48.1,42.3,89,65,36,29.87,29.74,14,4,14,0.00
2014-9-24,83.8,66.2,49.8,58.2,47.6,44.0,82,56,27,29.87,29.66,23,6,24,0.00
2014-9-25,87.1,68.2,48.0,57.2,46.3,40.6,78,49,20,29.82,29.47,15,5,17,0.00
2014-9-26,71.5,61.9,52.3,51.9,46.3,40.2,76,57,45,29.90,29.47,16,4,20,0.04
2014-9-27,53.6,46.8,43.3,46.8,44.4,39.0,96,92,59,30.24,29.89,17,4,17,0.81
2014-9-28,44.7,43.1,41.0,43.6,42.1,40.2,97,96,94,30.25,30.08,23,9,23,0.01
2014-9-29,56.4,48.2,42.7,51.3,45.5,40.1,96,90,81,30.10,29.63,22,5,24,0.02
2014-9-30,59.6,50.3,41.7,50.3,44.6,39.3,95,81,59,29.76,29.50,33,11,35,0.02
2014-10-1,53.9,45.5,40.8,42.1,37.5,29.2,95,75,53,29.90,29.75,27,12,28,0.01
2014-10-2,42.7,34.4,26.8,32.7,28.4,22.3,95,79,59,30.49,29.86,27,14,29,0.00
2014-10-3,52.7,36.6,19.5,32.8,25.7,16.2,89,67,40,30.51,30.06,23,5,23,0.00
2014-10-4,64.3,54.6,42.0,43.5,36.5,29.8,63,51,39,30.08,29.81,31,11,32,0.00
2014-10-5,61.9,50.7,38.3,42.7,39.0,34.8,88,66,47,29.88,29.83,23,5,23,0.00
2014-10-6,71.3,56.6,37.5,48.2,41.9,34.0,90,60,40,29.87,29.59,38,11,42,0.00
2014-10-7,63.3,52.4,45.2,46.4,42.8,34.0,93,72,48,29.91,29.73,17,3,17,0.03
2014-10-8,68.6,53.5,41.7,48.2,43.1,38.6,92,71,39,29.94,29.79,18,5,20,0.00
2014-10-9,54.6,48.2,43.1,42.8,39.8,36.1,84,73,59,30.12,29.90,20,7,22,0.00
2014-10-10,64.1,52.0,40.1,47.5,41.4,35.1,88,68,47,30.08,29.81,18,3,18,0.00
2014-10-11,66.3,53.2,40.4,43.9,38.6,32.7,92,60,38,29.82,29.57,40,10,40,0.35
2014-10-12,53.4,44.0,38.0,42.9,37.8,31.4,93,79,60,30.09,29.62,24,8,28,0.18
2014-10-13,59.0,43.5,28.8,37.1,32.4,26.2,90,68,40,30.13,29.85,17,6,23,0.00
2014-10-14,67.9,54.3,40.5,43.3,37.2,33.8,82,55,33,29.86,29.63,18,5,18,0.00
2014-10-15,72.9,54.9,40.6,43.8,37.3,33.8,80,55,26,29.67,29.33,36,10,42,0.03
2014-10-16,54.5,46.4,40.2,36.8,33.9,32.0,80,62,47,30.06,29.66,31,10,31,0.00
2014-10-17,60.2,45.0,30.7,37.2,31.2,26.7,86,62,30,30.15,29.88,14,4,14,0.00
2014-10-18,66.9,50.0,35.3,41.0,35.3,28.7,78,59,34,29.92,29.81,33,8,33,0.00
2014-10-19,70.5,50.3,33.5,44.8,36.0,30.0,88,62,30,30.00,29.82,19,6,19,0.00
2014-10-20,74.8,54.4,38.1,44.6,35.0,29.8,72,51,25,29.88,29.56,19,7,19,0.00
2014-10-21,68.1,52.4,40.0,46.6,39.5,33.1,97,64,38,29.80,29.42,41,9,52,0.17
2014-10-22,57.2,46.6,37.3,36.6,32.4,29.3,84,59,37,29.94,29.73,28,10,28,0.00
2014-10-23,63.0,55.3,45.6,39.8,34.4,28.9,56,45,39,29.85,29.64,32,10,32,0.00
2014-10-24,54.7,48.7,42.1,40.9,38.4,35.0,91,68,51,30.04,29.69,29,7,29,0.03
2014-10-25,69.0,49.2,33.9,47.6,39.3,32.0,93,72,38,30.04,29.48,14,3,14,0.00
2014-10-26,59.0,48.4,34.5,37.7,29.8,22.3,66,49,34,29.70,29.38,40,15,40,0.00
2014-10-27,40.1,34.3,30.0,31.5,28.0,23.9,95,79,56,30.16,29.68,33,16,33,0.03
2014-10-28,51.7,36.0,21.2,27.2,22.7,16.7,90,63,28,30.21,29.92,15,2,15,0.00
2014-10-29,55.7,48.6,36.1,39.1,33.9,24.9,77,58,41,30.15,29.81,38,14,38,0.04
2014-10-30,56.1,42.0,27.8,36.4,31.1,23.9,92,67,42,30.31,30.02,23,6,23,0.00
2014-10-31,69.6,52.1,37.3,43.6,33.8,29.1,73,52,27,30.03,29.59,20,4,20,0.00
2014-11-1,64.3,47.1,35.5,41.3,34.4,28.8,92,62,41,29.63,29.42,29,7,29,0.02
2014-11-2,38.7,34.8,32.6,33.8,31.8,29.3,96,89,75,29.96,29.54,26,7,26,0.02
2014-11-9,16.1,13.1,10.5,13.7,10.7,7.7,91,90,88,29.96,29.75,22,13,22,0.16
2014-11-10,12.2,7.8,0.6,8.8,4.7,-2.8,88,87,84,30.71,29.96,21,10,25,0.00
2014-11-11,1.1,-1.6,-6.8,-1.9,-5.5,-10.9,92,83,80,30.97,30.71,23,11,23,0.00
2014-11-12,10.3,-1.1,-11.6,3.7,-5.3,-16.0,95,82,74,30.99,30.81,13,4,13,0.00
2014-11-13,9.1,-2.5,-12.2,1.9,-7.5,-16.6,84,79,69,30.81,30.41,9,3,11,0.00
2014-11-14,3.2,-5.1,-13.0,-1.7,-9.4,-17.4,92,81,78,30.59,30.39,13,4,13,0.00
2014-11-15,11.9,2.3,-6.1,2.6,-4.1,-10.3,85,74,56,30.73,30.38,17,4,18,0.00
2014-11-16,25.5,19.5,12.4,16.7,12.1,-1.3,85,73,47,30.53,30.24,49,23,49,0.00
2014-11-17,29.6,18.7,9.3,16.9,10.9,5.8,89,72,50,30.54,30.19,15,5,22,0.00
2014-11-18,37.7,28.5,14.4,25.2,19.0,9.1,87,68,53,30.22,30.06,21,6,25,0.00
2014-11-19,34.8,22.7,14.6,24.0,17.8,11.9,92,82,61,30.27,30.02,0,0,0,0.00
2014-11-20,48.2,33.1,17.1,29.2,22.3,12.6,86,66,43,30.04,29.73,0,0,0,0.00
2014-11-21,47.7,38.6,28.9,30.4,26.1,22.0,76,61,48,29.78,29.45,24,6,24,0.00
2014-11-22,48.5,41.3,32.6,34.3,25.4,16.8,68,53,32,29.59,29.18,42,19,42,0.00
2014-11-23,38.7,32.8,27.3,24.4,20.5,16.4,87,61,42,29.92,29.58,43,16,43,0.00
2014-11-24,39.4,33.4,29.2,25.5,20.7,17.1,81,60,46,30.14,29.77,33,16,33,0.00
2014-11-25,37.0,29.9,25.4,31.0,26.1,21.2,100,86,55,30.25,29.77,42,14,42,0.00
2014-11-26,26.4,25.2,24.0,24.9,23.4,22.3,94,93,89,30.28,30.21,14,3,15,0.00
2014-11-27,53.2,47.8,41.9,38.0,34.4,30.0,69,60,54,29.89,29.56,37,13,37,0.08
2014-11-28,54.4,40.5,2.1,35.8,26.6,-1.4,88,60,45,29.60,29.27,41,16,41,0.00
2014-11-29,2.0,-6.9,-10.9,-1.5,-11.5,-16.1,85,80,76,30.42,29.58,28,12,29,0.00
2014-11-30,7.3,-3.5,-14.3,-1.5,-9.8,-18.9,83,74,58,30.72,30.41,15,6,15,0.00
2014-12-1,36.2,21.1,-1.2,22.2,9.2,-6.9,78,62,34,30.48,29.87,34,12,34,0.00
2014-12-2,28.2,20.1,8.1,16.1,8.8,2.2,77,62,43,30.27,29.89,34,11,34,0.00
2014-12-3,33.2,19.6,7.9,18.1,10.1,2.3,78,66,48,30.25,29.93,15,6,15,0.00
2014-12-4,41.5,31.4,18.8,37.6,27.7,10.5,94,86,69,29.99,29.80,13,3,13,0.02
2014-12-5,36.8,30.5,26.4,33.3,27.7,23.3,95,89,83,30.27,29.99,14,3,14,0.00
2014-12-6,52.6,38.8,28.2,36.2,30.4,25.2,89,73,47,30.23,29.92,27,9,27,0.00
2014-12-7,45.7,37.3,24.7,32.3,28.1,19.6,84,70,50,30.28,29.91,40,11,40,0.00
2014-12-8,51.4,35.0,22.6,30.2,23.5,17.5,83,64,42,30.31,30.09,20,6,20,0.00
2014-12-9,58.4,45.5,30.9,34.4,30.0,23.6,78,55,39,30.10,29.82,25,10,25,0.00
2014-12-10,59.0,44.7,33.6,36.3,31.7,27.4,83,61,40,29.99,29.69,27,5,27,0.00
2014-12-11,58.2,49.9,38.5,33.5,27.7,23.5,63,43,29,29.75,29.52,24,5,24,0.00
2014-12-12,54.7,44.9,37.5,32.2,28.8,25.1,65,54,38,29.73,29.53,19,4,23,0.00
2014-12-13,49.7,37.3,29.8,32.7,28.3,25.0,94,71,47,29.99,29.63,25,9,28,0.00
2014-12-14,29.7,26.5,22.9,27.4,24.9,21.0,95,94,91,30.32,29.96,24,14,27,0.00
2014-12-15,23.1,20.2,15.9,21.1,18.4,13.7,94,93,90,30.38,30.28,18,4,18,0.00
2014-12-16,25.2,16.7,9.3,22.1,14.1,6.7,92,89,83,30.30,30.09,13,3,14,0.00
2014-12-17,34.4,26.6,18.4,33.5,24.8,16.0,99,93,85,30.11,29.94,7,1,7,0.02
2014-12-18,41.0,29.5,15.2,28.8,22.4,12.9,93,76,56,30.05,29.94,21,6,22,0.00
2014-12-19,39.8,34.0,24.6,30.4,24.8,18.7,83,69,59,29.99,29.81,26,8,26,0.00
2014-12-20,40.1,34.6,27.3,27.9,23.4,17.4,72,63,52,29.93,29.55,30,9,30,0.00
2014-12-21,42.9,38.8,34.1,32.3,28.5,23.5,84,66,56,29.67,29.31,49,20,49,0.00
2014-12-22,35.0,31.6,28.8,26.6,23.7,22.1,80,72,61,30.20,29.66,29,14,32,0.00
2014-12-23,38.5,30.4,24.2,26.6,20.8,16.2,83,68,49,30.33,29.81,25,8,25,0.00
2014-12-24,42.4,36.0,27.6,31.7,29.6,26.1,95,79,61,29.83,29.45,33,11,33,0.03
2014-12-25,19.0,12.7,5.3,17.1,10.1,2.3,92,89,87,30.21,30.10,12,4,13,0.00
2014-12-26,19.3,11.2,3.1,16.9,8.6,-0.1,92,89,86,30.37,30.19,19,8,19,0.00
2014-12-27,27.2,17.2,0.9,19.5,11.9,-2.5,99,80,69,30.31,29.96,21,8,23,0.00
2014-12-28,23.7,17.2,7.2,22.2,15.0,4.4,99,91,79,30.58,29.90,17,6,17,0.00
2014-12-29,7.3,-0.9,-8.1,4.3,-4.3,-12.0,88,85,83,31.16,30.58,20,8,20,0.00
2014-12-30,14.0,-7.7,-22.5,9.3,-11.7,-27.5,92,82,78,31.25,30.58,13,5,14,0.00
2014-12-31,28.5,19.7,12.4,17.9,12.0,6.7,84,72,56,30.63,30.15,25,8,25,0.02
2015-1-1,33.9,24.7,13.1,24.9,18.4,8.6,89,77,64,30.19,30.05,14,3,14,0.04
2015-1-2,39.7,24.2,3.4,30.2,19.0,-0.1,91,81,64,30.15,29.70,40,11,40,0.05